Time;durP1;ratioP1;P1;durP2;ratioP2;P2;SDS_P1;SDS_P2;PMS_P1;PMS_P2;Temp;Humidity;BMP_temperature;BMP_pressure;BME280_temperature;BME280_humidity;BME280_pressure;Samples;Min_cycle;Max_cycle;Signal;HPM_P1;HPM_P2
2021/09/07 00:00:56;;;;;;;11.73;10.20;;;19.20;72.90;;;;;;4947034;28;20469;-41
2021/09/07 00:03:23;;;;;;;12.77;9.83;;;19.20;72.80;;;;;;4948054;28;20491;-41
2021/09/07 00:05:50;;;;;;;15.13;11.00;;;19.20;72.80;;;;;;4948837;28;20708;-41
2021/09/07 00:08:16;;;;;;;12.10;10.83;;;19.20;73.00;;;;;;4948114;28;20995;-42
2021/09/07 00:10:43;;;;;;;12.03;10.03;;;19.10;73.10;;;;;;4946590;28;20465;-42
2021/09/07 00:13:10;;;;;;;11.80;10.03;;;19.10;73.00;;;;;;4945307;29;20509;-42
2021/09/07 00:15:37;;;;;;;11.73;10.50;;;19.10;72.90;;;;;;4950893;28;20467;-41
2021/09/07 00:18:03;;;;;;;14.40;9.53;;;19.00;72.80;;;;;;4948530;28;20469;-42
2021/09/07 00:20:30;;;;;;;12.43;9.60;;;19.00;72.70;;;;;;4947997;28;20469;-42
2021/09/07 00:22:57;;;;;;;12.80;10.10;;;19.10;72.30;;;;;;4944995;28;20973;-42
2021/09/07 00:25:23;;;;;;;12.90;10.23;;;19.00;72.10;;;;;;4945090;28;20499;-42
2021/09/07 00:27:50;;;;;;;10.47;8.97;;;19.00;72.10;;;;;;4950997;28;20463;-42
2021/09/07 00:30:17;;;;;;;11.27;9.70;;;19.00;72.10;;;;;;4947551;28;20464;-42
2021/09/07 00:32:44;;;;;;;12.60;11.17;;;18.90;72.20;;;;;;4949560;28;20534;-42
2021/09/07 00:35:11;;;;;;;12.87;10.00;;;18.90;72.20;;;;;;4953810;28;20456;-42
2021/09/07 00:37:39;;;;;;;12.37;10.60;;;18.80;72.20;;;;;;4947009;28;20813;-42
2021/09/07 00:40:07;;;;;;;9.47;8.50;;;18.80;72.30;;;;;;4948006;28;20471;-42
2021/09/07 00:42:36;;;;;;;12.37;10.13;;;18.70;72.50;;;;;;4948179;28;20467;-42
2021/09/07 00:45:05;;;;;;;11.70;10.07;;;18.70;72.70;;;;;;4949666;28;20490;-42
2021/09/07 00:47:33;;;;;;;11.97;9.03;;;18.70;72.80;;;;;;4949825;28;20459;-42
2021/09/07 00:49:59;;;;;;;11.03;9.10;;;18.60;73.00;;;;;;4949800;28;20474;-42
2021/09/07 00:52:26;;;;;;;12.10;10.40;;;18.60;73.10;;;;;;4945472;28;20455;-42
2021/09/07 00:54:55;;;;;;;13.53;11.00;;;18.60;73.20;;;;;;4949719;28;20471;-42
2021/09/07 00:57:27;;;;;;;11.70;10.37;;;18.60;73.40;;;;;;4943682;28;20463;-41
2021/09/07 00:59:54;;;;;;;12.07;9.77;;;18.50;73.40;;;;;;4949216;28;20570;-41
2021/09/07 01:02:21;;;;;;;13.17;10.10;;;18.50;73.50;;;;;;4945636;28;20467;-42
2021/09/07 01:04:48;;;;;;;11.93;10.17;;;18.50;73.60;;;;;;4943864;28;20815;-42
2021/09/07 01:07:17;;;;;;;13.07;10.40;;;18.50;73.70;;;;;;4949604;28;20455;-42
2021/09/07 01:09:44;;;;;;;16.70;11.60;;;18.50;73.70;;;;;;4943129;28;20822;-42
2021/09/07 01:12:11;;;;;;;12.83;10.77;;;18.40;73.80;;;;;;4946750;28;20463;-42
2021/09/07 01:14:39;;;;;;;12.80;10.40;;;18.40;73.80;;;;;;4950027;28;20478;-42
2021/09/07 01:17:15;;;;;;;12.50;10.30;;;18.40;73.90;;;;;;4944806;28;20471;-42
2021/09/07 01:19:46;;;;;;;12.13;10.50;;;18.40;74.00;;;;;;4950594;28;20461;-41
2021/09/07 01:22:13;;;;;;;12.10;10.07;;;18.40;74.10;;;;;;4947886;28;20859;-42
2021/09/07 01:24:40;;;;;;;15.47;9.70;;;18.40;74.20;;;;;;4950146;28;20471;-41
2021/09/07 01:27:07;;;;;;;11.40;9.73;;;18.40;74.20;;;;;;4948613;28;20459;-42
2021/09/07 01:29:41;;;;;;;10.93;9.80;;;18.30;74.30;;;;;;4950455;28;20455;-42
2021/09/07 01:32:10;;;;;;;12.37;10.73;;;18.30;74.40;;;;;;4949628;28;20461;-42
2021/09/07 01:34:38;;;;;;;11.47;9.60;;;18.30;74.60;;;;;;4946216;28;20710;-42
2021/09/07 01:37:05;;;;;;;11.80;10.30;;;18.20;74.60;;;;;;4948358;28;20558;-41
2021/09/07 01:39:32;;;;;;;14.27;10.40;;;18.20;74.60;;;;;;4951527;28;20952;-42
2021/09/07 01:41:59;;;;;;;13.23;10.50;;;18.20;74.70;;;;;;4948221;28;21041;-42
2021/09/07 01:44:26;;;;;;;13.50;10.33;;;18.20;74.70;;;;;;4944676;28;20468;-42
2021/09/07 01:46:53;;;;;;;13.60;11.13;;;18.20;74.80;;;;;;4945168;29;20495;-42
2021/09/07 01:49:20;;;;;;;13.63;10.73;;;18.20;74.70;;;;;;4949176;28;20469;-42
2021/09/07 01:51:47;;;;;;;11.53;10.33;;;18.20;74.70;;;;;;4948824;28;20458;-42
2021/09/07 01:54:15;;;;;;;13.40;9.87;;;18.10;74.60;;;;;;4947956;28;20459;-42
2021/09/07 01:56:42;;;;;;;15.13;10.97;;;18.10;74.50;;;;;;4948117;28;20471;-42
2021/09/07 01:59:09;;;;;;;13.00;10.03;;;18.10;74.60;;;;;;4946512;28;20502;-42
2021/09/07 02:01:36;;;;;;;14.90;10.30;;;18.00;74.60;;;;;;4943371;28;20467;-42
2021/09/07 02:04:04;;;;;;;11.00;9.27;;;18.00;74.70;;;;;;4949669;28;20548;-42
2021/09/07 02:06:31;;;;;;;11.40;10.20;;;17.90;74.80;;;;;;4944430;28;20495;-42
2021/09/07 02:08:58;;;;;;;14.07;10.60;;;17.90;74.90;;;;;;4950742;28;20462;-42
2021/09/07 02:11:24;;;;;;;13.87;10.50;;;17.90;74.90;;;;;;4946261;28;20857;-42
2021/09/07 02:13:51;;;;;;;12.87;10.93;;;17.90;74.90;;;;;;4948373;28;20475;-42
2021/09/07 02:16:20;;;;;;;13.40;11.20;;;17.80;74.70;;;;;;4950272;28;20477;-46
2021/09/07 02:18:47;;;;;;;12.37;10.60;;;17.80;74.60;;;;;;4949046;28;20451;-46
2021/09/07 02:21:13;;;;;;;12.30;10.87;;;17.80;74.70;;;;;;4949260;28;20458;-46
2021/09/07 02:23:41;;;;;;;12.47;10.73;;;17.70;74.90;;;;;;4948666;28;20541;-46
2021/09/07 02:26:07;;;;;;;13.03;10.60;;;17.70;74.90;;;;;;4946454;28;21020;-45
2021/09/07 02:28:34;;;;;;;11.57;10.37;;;17.70;75.00;;;;;;4952640;28;20474;-45
2021/09/07 02:31:01;;;;;;;14.57;10.63;;;17.70;75.10;;;;;;4953090;28;20456;-46
2021/09/07 02:33:28;;;;;;;12.07;10.40;;;17.70;75.10;;;;;;4951033;28;20470;-46
2021/09/07 02:35:57;;;;;;;11.37;10.20;;;17.60;75.20;;;;;;4950719;28;20988;-45
2021/09/07 02:38:24;;;;;;;15.60;10.00;;;17.60;75.30;;;;;;4948523;28;20812;-46
2021/09/07 02:40:52;;;;;;;12.27;10.77;;;17.60;75.40;;;;;;4950046;28;20734;-46
2021/09/07 02:43:18;;;;;;;14.03;10.97;;;17.50;75.50;;;;;;4950924;28;20460;-46
2021/09/07 02:45:45;;;;;;;14.57;11.13;;;17.50;75.60;;;;;;4946772;28;20497;-46
2021/09/07 02:48:12;;;;;;;13.73;11.27;;;17.50;75.70;;;;;;4949394;28;20550;-46
2021/09/07 02:50:38;;;;;;;13.20;10.23;;;17.50;75.90;;;;;;4956874;28;20469;-46
2021/09/07 02:53:05;;;;;;;15.00;9.90;;;17.50;75.90;;;;;;4952938;28;20463;-45
2021/09/07 02:55:32;;;;;;;13.43;10.60;;;17.50;76.10;;;;;;4953115;28;20563;-45
2021/09/07 02:57:59;;;;;;;11.73;10.50;;;17.50;76.00;;;;;;4953051;28;20871;-45
2021/09/07 03:00:25;;;;;;;14.30;11.10;;;17.60;76.00;;;;;;4948259;28;20460;-45
2021/09/07 03:02:52;;;;;;;15.63;11.60;;;17.50;75.90;;;;;;4948704;28;20961;-45
2021/09/07 03:05:19;;;;;;;13.23;10.27;;;17.50;76.00;;;;;;4948800;29;20481;-45
2021/09/07 03:07:46;;;;;;;12.10;10.47;;;17.50;76.10;;;;;;4951117;28;20865;-45
2021/09/07 03:10:13;;;;;;;14.20;11.53;;;17.50;76.20;;;;;;4948577;28;20470;-45
2021/09/07 03:12:41;;;;;;;14.90;11.10;;;17.40;76.10;;;;;;4953494;28;21041;-45
2021/09/07 03:15:08;;;;;;;14.93;10.17;;;17.40;76.10;;;;;;4944784;28;20966;-45
2021/09/07 03:17:35;;;;;;;12.03;10.80;;;17.40;76.00;;;;;;4951751;28;20566;-45
2021/09/07 03:20:02;;;;;;;13.83;10.83;;;17.30;76.10;;;;;;4952181;28;20466;-45
2021/09/07 03:22:31;;;;;;;14.53;10.77;;;17.30;76.10;;;;;;4950392;28;20447;-45
2021/09/07 03:24:58;;;;;;;15.90;12.27;;;17.30;76.20;;;;;;4948818;28;20836;-46
2021/09/07 03:27:25;;;;;;;11.80;10.43;;;17.30;76.30;;;;;;4949959;28;20493;-45
2021/09/07 03:29:51;;;;;;;16.63;12.07;;;17.30;76.40;;;;;;4946567;28;20498;-45
2021/09/07 03:32:18;;;;;;;13.90;11.13;;;17.20;76.50;;;;;;4950968;28;20452;-45
2021/09/07 03:34:45;;;;;;;15.67;11.63;;;17.20;76.60;;;;;;4951646;28;20872;-45
2021/09/07 03:37:12;;;;;;;16.07;10.57;;;17.30;76.70;;;;;;4952836;28;20481;-45
2021/09/07 03:39:38;;;;;;;16.23;12.60;;;17.20;76.80;;;;;;4948131;29;20467;-45
2021/09/07 03:42:05;;;;;;;14.13;12.27;;;17.20;76.90;;;;;;4950923;28;20851;-45
2021/09/07 03:44:32;;;;;;;13.93;11.10;;;17.20;76.90;;;;;;4951667;28;20463;-45
2021/09/07 03:47:01;;;;;;;16.10;11.70;;;17.20;76.80;;;;;;4949836;28;20866;-45
2021/09/07 03:49:28;;;;;;;14.50;12.30;;;17.20;76.90;;;;;;4947786;28;20459;-45
2021/09/07 03:51:55;;;;;;;14.10;12.03;;;17.20;77.10;;;;;;4952149;28;20482;-45
2021/09/07 03:54:21;;;;;;;13.33;10.97;;;17.20;77.20;;;;;;4951507;28;20473;-45
2021/09/07 03:56:48;;;;;;;14.03;11.77;;;17.20;77.20;;;;;;4948501;28;20968;-45
2021/09/07 03:59:17;;;;;;;14.80;11.77;;;17.20;77.30;;;;;;4962835;28;20849;-45
2021/09/07 04:01:44;;;;;;;14.67;10.80;;;17.20;77.50;;;;;;4943180;28;20467;-45
2021/09/07 04:04:11;;;;;;;17.03;12.40;;;17.20;77.60;;;;;;4949213;29;20458;-45
2021/09/07 04:06:38;;;;;;;14.83;11.73;;;17.30;77.70;;;;;;4947986;28;20498;-45
2021/09/07 04:09:04;;;;;;;17.70;13.83;;;17.30;77.70;;;;;;4947890;28;20853;-45
2021/09/07 04:11:31;;;;;;;12.67;10.73;;;17.30;77.70;;;;;;4946055;28;20475;-45
2021/09/07 04:13:58;;;;;;;15.00;12.03;;;17.30;77.70;;;;;;4951137;28;20471;-46
2021/09/07 04:16:27;;;;;;;17.37;12.37;;;17.30;77.80;;;;;;4947868;28;20507;-46
2021/09/07 04:18:54;;;;;;;16.77;13.03;;;17.20;77.80;;;;;;4951842;28;20463;-45
2021/09/07 04:21:20;;;;;;;16.43;11.60;;;17.20;77.90;;;;;;4947439;28;20470;-45
2021/09/07 04:23:47;;;;;;;16.27;11.57;;;17.20;77.80;;;;;;4947642;28;20530;-45
2021/09/07 04:26:14;;;;;;;14.63;11.70;;;17.20;77.90;;;;;;4945115;28;20490;-45
2021/09/07 04:28:41;;;;;;;15.43;11.77;;;17.20;77.90;;;;;;4947572;28;20517;-45
2021/09/07 04:31:07;;;;;;;15.73;11.60;;;17.20;78.00;;;;;;4945272;28;20467;-45
2021/09/07 04:33:34;;;;;;;18.67;12.53;;;17.10;78.00;;;;;;4944472;28;20530;-46
2021/09/07 04:36:01;;;;;;;16.97;12.00;;;17.10;78.00;;;;;;4946209;28;20464;-45
2021/09/07 04:38:28;;;;;;;15.47;12.20;;;17.10;78.10;;;;;;4947890;28;20477;-46
2021/09/07 04:40:55;;;;;;;15.43;12.50;;;17.10;78.20;;;;;;4948820;28;20463;-46
2021/09/07 04:43:21;;;;;;;15.40;11.23;;;17.10;78.20;;;;;;4943630;28;20478;-46
2021/09/07 04:45:48;;;;;;;17.30;11.13;;;17.10;78.20;;;;;;4949334;28;20989;-46
2021/09/07 04:48:15;;;;;;;15.23;12.20;;;17.10;78.30;;;;;;4946993;28;20467;-45
2021/09/07 04:50:41;;;;;;;17.53;12.43;;;17.10;78.30;;;;;;4946545;28;20466;-46
2021/09/07 04:53:08;;;;;;;13.33;11.70;;;17.10;78.20;;;;;;4946526;28;20463;-45
2021/09/07 04:55:35;;;;;;;14.53;12.03;;;17.10;78.40;;;;;;4947523;28;20459;-46
2021/09/07 04:58:02;;;;;;;14.73;11.50;;;17.10;78.50;;;;;;4949097;28;20478;-46
2021/09/07 05:00:29;;;;;;;15.43;11.83;;;17.10;78.50;;;;;;4946710;28;20467;-45
2021/09/07 05:02:56;;;;;;;15.63;12.23;;;17.00;78.60;;;;;;4959897;28;20473;-46
2021/09/07 05:05:23;;;;;;;15.20;12.23;;;17.10;78.40;;;;;;4947886;28;20469;-46
2021/09/07 05:07:50;;;;;;;16.03;13.10;;;17.10;78.30;;;;;;4947658;28;20498;-45
2021/09/07 05:10:17;;;;;;;16.30;12.87;;;17.10;78.20;;;;;;4950133;28;20474;-46
2021/09/07 05:12:44;;;;;;;17.30;12.97;;;17.10;78.10;;;;;;4947327;28;20459;-45
2021/09/07 05:15:11;;;;;;;15.67;12.30;;;17.10;78.00;;;;;;4943216;28;20474;-45
2021/09/07 05:17:37;;;;;;;14.50;12.87;;;17.00;78.20;;;;;;4949750;28;20493;-45
2021/09/07 05:20:05;;;;;;;17.03;12.83;;;17.00;78.40;;;;;;4948725;28;20470;-45
2021/09/07 05:22:31;;;;;;;17.87;13.00;;;17.00;78.50;;;;;;4946056;28;20463;-45
2021/09/07 05:24:58;;;;;;;17.27;12.47;;;17.00;78.50;;;;;;4947304;28;20467;-45
2021/09/07 05:27:25;;;;;;;14.43;12.30;;;17.00;78.60;;;;;;4945580;28;20487;-45
2021/09/07 05:29:51;;;;;;;19.63;14.67;;;17.00;78.70;;;;;;4947178;28;20492;-45
2021/09/07 05:32:21;;;;;;;17.20;12.83;;;17.00;78.80;;;;;;4945572;28;20463;-45
2021/09/07 05:34:48;;;;;;;19.40;13.93;;;17.00;78.90;;;;;;4948413;28;20467;-45
2021/09/07 05:37:17;;;;;;;16.00;13.13;;;17.00;78.90;;;;;;4950065;28;20455;-46
2021/09/07 05:39:43;;;;;;;16.43;12.90;;;17.00;79.00;;;;;;4953935;28;20459;-45
2021/09/07 05:42:10;;;;;;;17.93;11.87;;;17.00;79.00;;;;;;4951608;28;20837;-45
2021/09/07 05:44:37;;;;;;;17.43;12.37;;;17.00;79.10;;;;;;4952695;28;20883;-45
2021/09/07 05:47:05;;;;;;;15.70;13.40;;;17.10;79.20;;;;;;4946502;28;20495;-45
2021/09/07 05:49:32;;;;;;;16.80;12.80;;;17.10;79.30;;;;;;4945318;28;20927;-45
2021/09/07 05:51:59;;;;;;;15.87;13.47;;;17.10;79.30;;;;;;4943631;28;20463;-45
2021/09/07 05:54:26;;;;;;;15.43;12.03;;;17.10;79.20;;;;;;4945878;28;20885;-45
2021/09/07 05:56:54;;;;;;;17.40;13.53;;;17.20;79.40;;;;;;4946397;28;20964;-45
2021/09/07 05:59:21;;;;;;;17.87;14.27;;;17.20;79.40;;;;;;4944317;28;20463;-45
2021/09/07 06:01:48;;;;;;;15.73;13.20;;;17.20;79.50;;;;;;4943817;28;20478;-46
2021/09/07 06:04:15;;;;;;;14.60;13.00;;;17.20;79.50;;;;;;4950232;28;20462;-45
2021/09/07 06:06:41;;;;;;;15.50;12.00;;;17.30;79.50;;;;;;4947337;28;20497;-45
2021/09/07 06:09:08;;;;;;;16.90;13.57;;;17.30;79.50;;;;;;4951390;28;20538;-45
2021/09/07 06:11:38;;;;;;;16.70;13.00;;;17.30;79.60;;;;;;4948810;28;20463;-46
2021/09/07 06:14:07;;;;;;;15.80;13.40;;;17.30;79.60;;;;;;4948685;28;20475;-46
2021/09/07 06:16:34;;;;;;;17.87;13.70;;;17.30;79.70;;;;;;4949118;28;20467;-45
2021/09/07 06:19:01;;;;;;;15.93;13.53;;;17.40;79.70;;;;;;4954149;28;20474;-46
2021/09/07 06:21:29;;;;;;;17.93;13.33;;;17.40;79.60;;;;;;4950890;28;20541;-46
2021/09/07 06:23:59;;;;;;;15.03;12.67;;;17.50;79.70;;;;;;4950064;28;20473;-46
2021/09/07 06:26:26;;;;;;;15.80;13.00;;;17.50;79.70;;;;;;4952277;28;20490;-46
2021/09/07 06:28:52;;;;;;;16.47;13.53;;;17.50;79.70;;;;;;4953360;28;20841;-45
2021/09/07 06:31:19;;;;;;;19.83;13.50;;;17.60;79.70;;;;;;4950233;28;20467;-45
2021/09/07 06:33:46;;;;;;;17.57;12.70;;;17.60;79.70;;;;;;4949034;28;20462;-45
2021/09/07 06:36:13;;;;;;;19.20;14.00;;;17.70;79.70;;;;;;4952681;28;20826;-46
2021/09/07 06:38:40;;;;;;;18.47;15.67;;;17.80;79.30;;;;;;4951499;28;20530;-45
2021/09/07 06:41:08;;;;;;;18.37;13.60;;;17.80;79.30;;;;;;4953888;28;20463;-46
2021/09/07 06:43:35;;;;;;;16.60;14.23;;;17.80;79.40;;;;;;4952268;28;20879;-45
2021/09/07 06:46:02;;;;;;;18.87;13.33;;;17.80;79.30;;;;;;4952947;28;20546;-45
2021/09/07 06:48:29;;;;;;;15.50;11.60;;;17.90;79.20;;;;;;4968359;28;20491;-46
2021/09/07 06:50:56;;;;;;;17.53;13.00;;;18.00;78.90;;;;;;4952387;28;20452;-45
2021/09/07 06:53:23;;;;;;;16.00;12.77;;;18.10;78.60;;;;;;4951146;28;21004;-45
2021/09/07 06:55:50;;;;;;;19.20;14.17;;;18.10;78.10;;;;;;4951019;29;20490;-45
2021/09/07 06:58:21;;;;;;;19.20;13.63;;;18.20;77.80;;;;;;4949521;28;20463;-45
2021/09/07 07:00:48;;;;;;;17.53;13.47;;;18.20;77.70;;;;;;4948020;28;20493;-45
2021/09/07 07:03:15;;;;;;;17.17;12.73;;;18.20;77.70;;;;;;4950647;28;21037;-45
2021/09/07 07:05:42;;;;;;;19.90;13.97;;;18.30;77.70;;;;;;4950431;28;20474;-45
2021/09/07 07:08:09;;;;;;;18.50;14.17;;;18.30;77.70;;;;;;4947835;28;20486;-46
2021/09/07 07:10:36;;;;;;;16.50;13.10;;;18.30;77.70;;;;;;4951952;28;20469;-46
2021/09/07 07:13:03;;;;;;;21.20;13.07;;;18.40;77.70;;;;;;4948986;28;20509;-46
2021/09/07 07:15:30;;;;;;;18.43;14.00;;;18.50;77.70;;;;;;4946942;28;20486;-45
2021/09/07 07:17:57;;;;;;;17.33;14.03;;;18.50;77.70;;;;;;4947384;28;21001;-45
2021/09/07 07:20:23;;;;;;;16.03;13.00;;;18.50;77.60;;;;;;4948453;28;20458;-45
2021/09/07 07:22:50;;;;;;;17.67;14.47;;;18.60;77.60;;;;;;4949689;28;20463;-44
2021/09/07 07:25:17;;;;;;;16.57;13.30;;;18.60;77.60;;;;;;4949568;28;20849;-45
2021/09/07 07:27:45;;;;;;;18.20;14.53;;;18.60;77.60;;;;;;4949899;28;20579;-44
2021/09/07 07:30:12;;;;;;;23.40;14.47;;;18.70;77.30;;;;;;4949594;28;20463;-45
2021/09/07 07:32:39;;;;;;;17.50;14.37;;;18.70;77.20;;;;;;4952396;28;20455;-44
2021/09/07 07:35:06;;;;;;;21.17;13.87;;;18.80;77.10;;;;;;4952413;28;20534;-44
2021/09/07 07:37:33;;;;;;;21.33;14.90;;;18.90;77.00;;;;;;4954084;28;21073;-45
2021/09/07 07:40:00;;;;;;;18.20;14.40;;;18.90;76.90;;;;;;4948889;28;20519;-45
2021/09/07 07:42:27;;;;;;;22.10;15.00;;;19.00;76.80;;;;;;4948713;28;20557;-45
2021/09/07 07:44:54;;;;;;;19.83;13.67;;;19.00;76.40;;;;;;4947069;28;20851;-45
2021/09/07 07:47:21;;;;;;;18.73;13.60;;;19.10;76.20;;;;;;4949924;28;20505;-45
2021/09/07 07:49:49;;;;;;;23.43;14.03;;;19.20;76.00;;;;;;4948655;28;20463;-45
2021/09/07 07:52:16;;;;;;;19.43;14.20;;;19.30;75.60;;;;;;4949565;28;20462;-45
2021/09/07 07:54:44;;;;;;;21.87;13.97;;;19.40;75.20;;;;;;4934835;28;20454;-45
2021/09/07 07:57:12;;;;;;;20.43;14.77;;;19.50;75.00;;;;;;4946831;28;20463;-45
2021/09/07 07:59:38;;;;;;;15.90;12.60;;;19.60;74.90;;;;;;4945865;28;20477;-45
2021/09/07 08:02:06;;;;;;;15.23;12.73;;;19.70;74.30;;;;;;4948465;28;20467;-45
2021/09/07 08:04:51;;;;;;;17.27;14.10;;;19.80;74.10;;;;;;4946999;28;20474;-45
2021/09/07 08:07:18;;;;;;;19.73;14.07;;;19.90;73.70;;;;;;4946647;29;21000;-45
2021/09/07 08:09:45;;;;;;;19.43;14.33;;;20.00;73.20;;;;;;4946433;28;20485;-45
2021/09/07 08:12:16;;;;;;;18.17;14.63;;;20.00;73.10;;;;;;4949913;28;20809;-45
2021/09/07 08:14:45;;;;;;;16.03;12.60;;;20.10;73.10;;;;;;4948895;28;20483;-45
2021/09/07 08:17:12;;;;;;;19.50;14.03;;;20.20;72.80;;;;;;4945771;28;20482;-45
2021/09/07 08:19:40;;;;;;;20.27;14.30;;;20.40;72.40;;;;;;4947582;28;20553;-45
2021/09/07 08:22:09;;;;;;;19.73;13.60;;;20.50;72.10;;;;;;4946577;28;20594;-45
2021/09/07 08:24:37;;;;;;;14.80;12.50;;;20.70;71.40;;;;;;4944569;28;20455;-46
2021/09/07 08:27:04;;;;;;;16.73;14.10;;;20.90;71.10;;;;;;4959798;28;20483;-45
2021/09/07 08:29:30;;;;;;;17.77;14.00;;;21.10;70.40;;;;;;4946657;28;20467;-45
2021/09/07 08:31:57;;;;;;;16.57;13.40;;;21.20;69.70;;;;;;4950127;28;20469;-45
2021/09/07 08:34:24;;;;;;;15.73;11.90;;;21.30;69.10;;;;;;4959117;28;21013;-45
2021/09/07 08:36:51;;;;;;;16.20;12.87;;;21.40;68.80;;;;;;4953970;28;20463;-48
2021/09/07 08:39:19;;;;;;;19.63;12.87;;;21.60;68.40;;;;;;4950893;28;20459;-45
2021/09/07 08:41:46;;;;;;;17.73;12.93;;;21.70;68.10;;;;;;4951964;28;20801;-46
2021/09/07 08:44:19;;;;;;;15.40;11.97;;;21.80;67.60;;;;;;4949107;28;20948;-45
2021/09/07 08:46:46;;;;;;;16.10;13.00;;;22.00;67.10;;;;;;4948215;28;20455;-45
2021/09/07 08:49:19;;;;;;;16.33;11.73;;;22.20;65.70;;;;;;4948513;28;20490;-45
2021/09/07 08:51:47;;;;;;;17.00;12.80;;;22.50;65.20;;;;;;4952263;28;20450;-46
2021/09/07 08:54:14;;;;;;;18.30;12.63;;;22.70;64.20;;;;;;4950569;28;20454;-46
2021/09/07 08:56:42;;;;;;;17.23;13.60;;;22.80;63.20;;;;;;4950946;28;21009;-45
2021/09/07 08:59:09;;;;;;;15.77;12.70;;;23.00;62.90;;;;;;4949842;28;20463;-45
2021/09/07 09:01:38;;;;;;;17.03;13.73;;;23.20;62.00;;;;;;4947434;28;20463;-45
2021/09/07 09:04:23;;;;;;;18.90;12.27;;;23.40;61.50;;;;;;4944140;28;20471;-47
2021/09/07 09:06:50;;;;;;;16.00;12.20;;;23.50;60.90;;;;;;4947858;28;20478;-46
2021/09/07 09:09:16;;;;;;;17.60;13.57;;;23.60;60.70;;;;;;4950892;28;21244;-46
2021/09/07 09:11:55;;;;;;;19.03;12.93;;;23.80;59.70;;;;;;4946519;29;20447;-46
2021/09/07 09:14:40;;;;;;;18.70;12.90;;;23.90;59.20;;;;;;4948593;28;20474;-46
2021/09/07 09:17:31;;;;;;;17.30;12.17;;;24.10;58.90;;;;;;4948822;28;20888;-46
2021/09/07 09:19:59;;;;;;;13.37;11.80;;;24.30;58.60;;;;;;4943964;28;20825;-45
2021/09/07 09:22:55;;;;;;;17.07;11.90;;;24.50;58.10;;;;;;4947345;28;20553;-46
2021/09/07 09:25:22;;;;;;;16.00;11.20;;;24.80;57.60;;;;;;4946908;28;20459;-45
2021/09/07 09:28:06;;;;;;;17.90;12.57;;;25.00;57.40;;;;;;4950978;28;20565;-46
2021/09/07 09:30:58;;;;;;;17.13;12.20;;;25.20;57.10;;;;;;4943219;28;20501;-45
2021/09/07 09:33:27;;;;;;;16.57;12.33;;;25.50;56.10;;;;;;4944869;28;20467;-46
2021/09/07 09:35:59;;;;;;;20.07;13.50;;;25.60;55.40;;;;;;4946643;28;20976;-48
2021/09/07 09:38:34;;;;;;;17.83;12.70;;;25.50;55.50;;;;;;4950539;28;20473;-46
2021/09/07 09:41:06;;;;;;;14.17;11.67;;;25.50;55.10;;;;;;4949186;29;20975;-46
2021/09/07 09:43:38;;;;;;;15.77;12.77;;;25.40;55.00;;;;;;4946632;28;20473;-46
2021/09/07 09:46:26;;;;;;;17.63;13.00;;;25.30;54.40;;;;;;4945666;28;20463;-46
2021/09/07 09:49:16;;;;;;;15.30;11.80;;;25.30;55.00;;;;;;4947435;28;20975;-46
2021/09/07 09:51:43;;;;;;;16.00;10.50;;;25.30;55.20;;;;;;4947470;28;20996;-46
2021/09/07 09:54:23;;;;;;;16.57;12.70;;;25.20;53.10;;;;;;4947078;29;20457;-45
2021/09/07 09:56:51;;;;;;;16.60;11.80;;;25.20;51.30;;;;;;4959900;28;20466;-46
2021/09/07 09:59:20;;;;;;;16.63;12.03;;;25.20;51.10;;;;;;4948398;28;20485;-46
2021/09/07 10:01:49;;;;;;;13.70;10.87;;;25.30;51.40;;;;;;4952903;28;20455;-46
2021/09/07 10:04:19;;;;;;;15.30;11.33;;;25.40;51.30;;;;;;4944709;28;21249;-47
2021/09/07 10:06:50;;;;;;;17.23;11.80;;;25.50;51.60;;;;;;4950531;28;20461;-47
2021/09/07 10:09:19;;;;;;;18.43;12.07;;;25.70;52.00;;;;;;4953148;28;20485;-47
2021/09/07 10:12:00;;;;;;;12.63;11.30;;;25.70;49.80;;;;;;4951918;28;20462;-49
2021/09/07 10:14:33;;;;;;;14.27;11.90;;;26.00;49.50;;;;;;4950796;28;20486;-46
2021/09/07 10:17:29;;;;;;;15.07;10.80;;;26.30;48.80;;;;;;4950990;28;20969;-47
2021/09/07 10:20:11;;;;;;;16.30;11.80;;;26.60;48.60;;;;;;4946748;28;20466;-46
2021/09/07 10:25:55;;;;;;;16.10;12.30;;;27.30;47.40;;;;;;4949446;28;20458;-46
2021/09/07 10:28:42;;;;;;;15.90;11.20;;;27.60;46.80;;;;;;4944917;28;20485;-46
2021/09/07 10:31:15;;;;;;;14.60;10.97;;;27.90;47.00;;;;;;4963048;28;20465;-46
2021/09/07 10:33:54;;;;;;;14.83;11.50;;;28.10;46.20;;;;;;4955278;28;20254;-46
2021/09/07 10:36:23;;;;;;;16.90;11.07;;;28.40;46.10;;;;;;4951453;28;20221;-46
2021/09/07 10:39:03;;;;;;;14.13;11.83;;;28.70;45.40;;;;;;4952767;28;20225;-46
2021/09/07 10:41:33;;;;;;;14.40;11.07;;;28.90;44.40;;;;;;4949486;28;20210;-46
2021/09/07 10:44:07;;;;;;;15.20;10.57;;;29.10;43.80;;;;;;4950625;28;20211;-46
2021/09/07 10:46:52;;;;;;;14.57;10.67;;;29.20;44.10;;;;;;4948521;28;20246;-46
2021/09/07 10:49:43;;;;;;;15.10;12.05;;;29.30;44.70;;;;;;4947532;28;20230;-46
2021/09/07 10:52:12;;;;;;;17.10;11.50;;;29.20;44.90;;;;;;4951183;28;20221;-46
2021/09/07 10:55:07;;;;;;;14.37;12.13;;;29.10;44.40;;;;;;4951394;28;20203;-47
2021/09/07 10:57:35;;;;;;;12.60;10.30;;;29.00;44.50;;;;;;4952097;28;20207;-46
2021/09/07 11:00:14;;;;;;;15.70;12.43;;;28.90;44.40;;;;;;4947343;28;20204;-46
2021/09/07 11:02:41;;;;;;;15.10;11.10;;;28.70;44.30;;;;;;4947673;28;20664;-46
2021/09/07 11:05:32;;;;;;;17.00;11.60;;;28.60;44.70;;;;;;4951174;28;20677;-46
2021/09/07 11:08:02;;;;;;;16.17;10.67;;;28.40;45.10;;;;;;4958099;28;20595;-46
2021/09/07 11:10:41;;;;;;;16.30;12.57;;;28.20;45.00;;;;;;4951264;28;20287;-46
2021/09/07 11:13:24;;;;;;;16.60;11.47;;;28.10;44.70;;;;;;4951873;28;20241;-46
2021/09/07 11:15:53;;;;;;;13.20;10.23;;;28.00;45.10;;;;;;4949173;28;20313;-46
2021/09/07 11:18:42;;;;;;;15.27;10.13;;;27.90;45.40;;;;;;4949254;28;20592;-46
2021/09/07 11:21:09;;;;;;;14.70;11.10;;;27.80;45.30;;;;;;4947507;28;20470;-46
2021/09/07 11:23:38;;;;;;;14.07;11.57;;;27.70;44.80;;;;;;4950196;28;20466;-46
2021/09/07 11:26:07;;;;;;;12.47;10.37;;;27.60;45.30;;;;;;4950787;28;20529;-46
2021/09/07 11:28:36;;;;;;;13.30;10.50;;;27.50;45.80;;;;;;4948558;28;20490;-46
2021/09/07 11:31:08;;;;;;;13.93;10.60;;;27.40;46.10;;;;;;4949358;28;20451;-47
2021/09/07 11:33:37;;;;;;;17.17;10.77;;;27.30;46.30;;;;;;4951760;28;20470;-46
2021/09/07 11:36:09;;;;;;;15.30;11.00;;;27.20;46.40;;;;;;4948863;28;20994;-46
2021/09/07 11:38:40;;;;;;;13.10;10.47;;;27.10;46.60;;;;;;4952228;28;20214;-46
2021/09/07 11:41:09;;;;;;;14.47;11.80;;;27.00;46.80;;;;;;4945977;28;20461;-46
2021/09/07 11:43:41;;;;;;;14.83;11.37;;;27.00;47.00;;;;;;4950402;28;20466;-46
2021/09/07 11:46:15;;;;;;;15.20;11.20;;;26.90;47.40;;;;;;4950242;28;20457;-45
2021/09/07 11:48:45;;;;;;;14.97;10.27;;;26.80;47.70;;;;;;4947284;28;20616;-46
2021/09/07 11:51:16;;;;;;;15.00;10.73;;;26.80;48.30;;;;;;4945594;29;20210;-46
2021/09/07 11:53:51;;;;;;;14.00;10.47;;;26.70;48.60;;;;;;4950453;28;20552;-47
2021/09/07 11:56:30;;;;;;;14.13;10.77;;;26.70;48.70;;;;;;4949282;28;21976;-46
2021/09/07 11:59:14;;;;;;;14.30;10.50;;;26.70;48.50;;;;;;4948576;28;20556;-45
2021/09/07 12:01:42;;;;;;;12.60;10.33;;;26.70;48.70;;;;;;4945340;28;20469;-46
2021/09/07 12:04:17;;;;;;;13.87;10.80;;;26.70;48.00;;;;;;4946462;28;20472;-46
2021/09/07 12:06:49;;;;;;;11.93;10.60;;;26.60;47.70;;;;;;4947025;28;20498;-46
2021/09/07 12:09:19;;;;;;;12.57;10.50;;;26.50;47.80;;;;;;4947106;28;20995;-46
2021/09/07 12:12:20;;;;;;;12.00;9.70;;;26.50;48.00;;;;;;4944691;28;20810;-45
2021/09/07 12:14:48;;;;;;;13.17;10.27;;;26.50;47.90;;;;;;4903167;28;20482;-46
2021/09/07 12:17:18;;;;;;;11.53;9.93;;;26.50;48.90;;;;;;4942785;28;20829;-46
2021/09/07 12:19:50;;;;;;;14.77;11.63;;;26.60;49.00;;;;;;4944110;28;20459;-46
2021/09/07 12:22:22;;;;;;;13.77;10.23;;;26.50;48.70;;;;;;4948818;28;20513;-46
2021/09/07 12:25:11;;;;;;;12.20;10.57;;;26.50;47.70;;;;;;4944072;28;20976;-46
2021/09/07 12:27:47;;;;;;;11.83;9.73;;;26.40;47.90;;;;;;4947557;28;20468;-46
2021/09/07 12:30:20;;;;;;;13.67;11.37;;;26.40;48.10;;;;;;4949183;28;20460;-46
2021/09/07 12:33:14;;;;;;;12.47;10.40;;;26.40;48.10;;;;;;4947307;28;20458;-46
2021/09/07 12:35:56;;;;;;;12.90;10.07;;;26.50;47.20;;;;;;4949083;28;20808;-46
2021/09/07 12:38:32;;;;;;;12.90;9.93;;;26.50;47.00;;;;;;4949726;28;20455;-45
2021/09/07 12:41:06;;;;;;;11.33;10.10;;;26.50;46.80;;;;;;4953123;28;20968;-46
2021/09/07 12:43:35;;;;;;;12.40;10.33;;;26.50;46.90;;;;;;4949212;28;20471;-46